Time;durP1;ratioP1;P1;durP2;ratioP2;P2;SDS_P1;SDS_P2;PMS_P1;PMS_P2;Temp;Humidity;BMP_temperature;BMP_pressure;BME280_temperature;BME280_humidity;BME280_pressure;Samples;Min_cycle;Max_cycle;Signal;HPM_P1;HPM_P2
2023/05/22 00:01:57;;;;;;;15.90;12.20;;;14.90;7.40;;;;;;5030342;28;20057;-61
2023/05/22 00:04:22;;;;;;;21.63;12.00;;;14.90;13.20;;;;;;5030953;28;20064;-61
2023/05/22 00:06:48;;;;;;;16.35;12.55;;;14.90;13.70;;;;;;5029283;28;20030;-61
2023/05/22 00:09:14;;;;;;;15.50;11.75;;;14.90;13.20;;;;;;5030846;28;20033;-60
2023/05/22 00:11:40;;;;;;;18.40;12.07;;;14.80;14.20;;;;;;5031133;28;20025;-61
2023/05/22 00:14:06;;;;;;;17.08;12.07;;;14.80;19.80;;;;;;5031179;28;20116;-60
2023/05/22 00:16:31;;;;;;;13.90;11.82;;;14.90;13.50;;;;;;5034042;28;20041;-61
2023/05/22 00:18:58;;;;;;;18.17;12.30;;;14.90;12.00;;;;;;5034156;28;20380;-61
2023/05/22 00:21:26;;;;;;;18.25;13.02;;;14.80;14.50;;;;;;5034081;28;20046;-61
2023/05/22 00:23:52;;;;;;;15.75;13.75;;;14.80;16.80;;;;;;5033841;28;20116;-61
2023/05/22 00:26:17;;;;;;;15.52;12.15;;;14.70;19.20;;;;;;5034780;28;20109;-60
2023/05/22 00:28:43;;;;;;;18.55;13.32;;;14.70;23.20;;;;;;5034652;28;20083;-61
2023/05/22 00:31:09;;;;;;;15.95;13.45;;;14.60;21.30;;;;;;5033952;28;20029;-61
2023/05/22 00:33:35;;;;;;;20.00;12.50;;;14.60;27.00;;;;;;5033818;28;20032;-60
2023/05/22 00:36:00;;;;;;;15.70;12.45;;;14.60;29.80;;;;;;5033844;28;20428;-61
2023/05/22 00:38:34;;;;;;;17.45;12.68;;;14.50;31.10;;;;;;5034015;28;20034;-61
2023/05/22 00:41:00;;;;;;;18.35;14.32;;;14.40;34.00;;;;;;5034224;28;20042;-61
2023/05/22 00:43:26;;;;;;;19.17;12.35;;;14.40;37.20;;;;;;5034306;28;20046;-61
2023/05/22 00:45:53;;;;;;;17.27;13.90;;;14.30;40.40;;;;;;5033635;28;20029;-60
2023/05/22 00:48:23;;;;;;;20.75;14.48;;;14.30;39.70;;;;;;5033965;28;20041;-61
2023/05/22 00:50:50;;;;;;;16.10;12.45;;;14.20;45.20;;;;;;5033403;28;20108;-61
2023/05/22 00:53:17;;;;;;;23.38;12.73;;;14.20;47.60;;;;;;5032525;28;20036;-61
2023/05/22 00:55:43;;;;;;;24.33;14.27;;;14.10;46.20;;;;;;5033705;28;20026;-61
2023/05/22 00:58:12;;;;;;;20.20;13.40;;;14.10;47.30;;;;;;5033636;28;20026;-61
2023/05/22 01:00:41;;;;;;;20.85;13.90;;;14.00;53.30;;;;;;5032120;28;20040;-60
2023/05/22 01:03:08;;;;;;;15.52;13.30;;;14.00;55.60;;;;;;5031811;28;20111;-61
2023/05/22 01:05:37;;;;;;;25.45;14.68;;;14.00;52.90;;;;;;5033443;28;20044;-61
2023/05/22 01:08:05;;;;;;;20.48;13.93;;;14.00;55.20;;;;;;5031870;28;20525;-61
2023/05/22 01:10:32;;;;;;;19.23;14.82;;;13.90;59.50;;;;;;5032017;28;20592;-61
2023/05/22 01:13:19;;;;;;;20.05;13.63;;;13.90;58.40;;;;;;5033154;28;20075;-61
2023/05/22 01:16:01;;;;;;;16.85;12.70;;;13.80;60.50;;;;;;5033105;28;20443;-61
2023/05/22 01:18:53;;;;;;;25.85;13.27;;;13.90;57.60;;;;;;5033275;28;20643;-61
2023/05/22 01:21:23;;;;;;;18.80;13.35;;;13.90;56.10;;;;;;5032950;28;20052;-61
2023/05/22 01:24:26;;;;;;;20.33;14.82;;;13.90;59.10;;;;;;5032937;28;20540;-61
2023/05/22 01:27:24;;;;;;;22.50;13.13;;;13.80;55.90;;;;;;5031356;28;20029;-61
2023/05/22 01:30:11;;;;;;;16.58;13.18;;;13.70;54.90;;;;;;5032204;28;20119;-59
2023/05/22 01:32:39;;;;;;;24.63;13.65;;;13.70;54.00;;;;;;5032328;28;20030;-60
2023/05/22 01:35:07;;;;;;;15.95;12.80;;;13.70;62.30;;;;;;5029908;28;20069;-61
2023/05/22 01:37:35;;;;;;;20.50;13.38;;;13.70;52.50;;;;;;5013032;28;20026;-60
2023/05/22 01:40:01;;;;;;;16.83;13.38;;;13.60;49.50;;;;;;5022743;28;20108;-61
2023/05/22 01:42:27;;;;;;;21.30;14.65;;;13.50;56.50;;;;;;5033316;28;20032;-60
2023/05/22 01:44:53;;;;;;;27.20;13.48;;;13.50;59.90;;;;;;5033279;28;20405;-60
2023/05/22 01:47:18;;;;;;;22.15;14.63;;;13.40;57.50;;;;;;5033127;28;20032;-61
2023/05/22 01:49:46;;;;;;;24.00;15.80;;;13.20;57.30;;;;;;5032992;28;20080;-61
2023/05/22 01:52:26;;;;;;;21.65;14.50;;;13.00;61.10;;;;;;5032860;28;20017;-61
2023/05/22 01:55:02;;;;;;;18.52;14.93;;;12.80;68.20;;;;;;5032929;28;20025;-61
2023/05/22 01:57:42;;;;;;;18.63;15.23;;;12.70;72.80;;;;;;5032657;28;20121;-60
2023/05/22 02:00:14;;;;;;;20.58;15.23;;;12.60;75.90;;;;;;5032815;28;20516;-61
2023/05/22 02:02:43;;;;;;;14.63;12.95;;;12.50;78.80;;;;;;5032348;28;20427;-61
2023/05/22 02:05:11;;;;;;;21.38;14.77;;;12.40;80.60;;;;;;5032587;28;20041;-61
2023/05/22 02:07:39;;;;;;;15.82;13.77;;;12.40;80.90;;;;;;5032427;28;20030;-61
2023/05/22 02:10:08;;;;;;;16.13;14.10;;;12.50;80.60;;;;;;5032447;28;20112;-61
2023/05/22 02:12:34;;;;;;;17.05;15.02;;;12.60;78.50;;;;;;5032341;28;20025;-61
2023/05/22 02:15:00;;;;;;;17.13;14.70;;;12.60;81.20;;;;;;5031150;28;20030;-61
2023/05/22 02:17:26;;;;;;;18.25;13.95;;;12.70;84.20;;;;;;5032307;28;20048;-60
2023/05/22 02:19:52;;;;;;;15.30;13.70;;;12.80;85.00;;;;;;5031920;28;20402;-61
2023/05/22 02:22:18;;;;;;;22.42;15.30;;;12.80;81.00;;;;;;5030582;28;20049;-61
2023/05/22 02:24:46;;;;;;;17.38;15.48;;;12.90;77.30;;;;;;5031631;28;20075;-61
2023/05/22 02:27:12;;;;;;;19.45;16.00;;;12.80;75.20;;;;;;5031850;28;20025;-60
2023/05/22 02:29:38;;;;;;;20.52;14.27;;;12.80;81.50;;;;;;5030353;28;20036;-60
2023/05/22 02:32:04;;;;;;;17.48;14.68;;;12.80;81.70;;;;;;5031879;28;20025;-61
2023/05/22 02:34:30;;;;;;;17.58;14.85;;;12.70;79.70;;;;;;5031622;28;20048;-61
2023/05/22 02:37:02;;;;;;;22.77;15.02;;;12.80;82.60;;;;;;5031126;28;20025;-61
2023/05/22 02:39:28;;;;;;;23.45;15.50;;;12.80;82.90;;;;;;5031792;28;20440;-61
2023/05/22 02:41:54;;;;;;;18.45;14.60;;;12.90;79.70;;;;;;5031620;28;20021;-60
2023/05/22 02:44:20;;;;;;;14.13;12.57;;;12.90;71.90;;;;;;5031376;28;20428;-60
2023/05/22 02:46:46;;;;;;;18.35;13.77;;;12.90;51.00;;;;;;5031593;28;20037;-61
2023/05/22 02:49:12;;;;;;;18.83;13.98;;;12.70;43.60;;;;;;5030510;28;20021;-61
2023/05/22 02:51:38;;;;;;;19.35;14.10;;;12.50;45.00;;;;;;5031599;28;20386;-61
2023/05/22 02:54:04;;;;;;;20.05;14.20;;;12.30;58.60;;;;;;5032033;28;20038;-61
2023/05/22 02:56:29;;;;;;;20.35;15.88;;;12.20;77.00;;;;;;5031591;28;20036;-61
2023/05/22 02:58:56;;;;;;;19.35;15.35;;;12.00;82.00;;;;;;5031396;28;20033;-61
2023/05/22 03:01:21;;;;;;;19.63;15.07;;;11.90;84.50;;;;;;5029823;28;20033;-60
2023/05/22 03:03:47;;;;;;;19.00;16.58;;;11.80;89.00;;;;;;5031256;28;20357;-60
2023/05/22 03:06:14;;;;;;;21.55;17.27;;;11.70;90.90;;;;;;5031434;28;20064;-61
2023/05/22 03:08:42;;;;;;;27.73;16.55;;;11.60;91.50;;;;;;5031212;28;20488;-61
2023/05/22 03:11:08;;;;;;;24.58;15.65;;;11.60;89.90;;;;;;5031489;28;20085;-60
2023/05/22 03:13:34;;;;;;;19.55;16.02;;;11.50;90.30;;;;;;5031269;28;20503;-60
2023/05/22 03:16:00;;;;;;;19.30;15.75;;;11.50;89.20;;;;;;5030994;28;20120;-60
2023/05/22 03:18:26;;;;;;;23.92;16.23;;;11.40;90.30;;;;;;5031362;28;20026;-59
2023/05/22 03:20:51;;;;;;;20.20;16.55;;;11.40;88.50;;;;;;5031105;28;20042;-59
2023/05/22 03:23:19;;;;;;;25.50;17.25;;;11.30;90.20;;;;;;5031264;28;20029;-61
2023/05/22 03:25:46;;;;;;;22.77;15.15;;;11.30;91.40;;;;;;5029308;28;20041;-60
2023/05/22 03:28:12;;;;;;;21.23;15.73;;;11.30;92.20;;;;;;5029725;28;20088;-59
2023/05/22 03:30:38;;;;;;;20.08;15.45;;;11.20;90.40;;;;;;5031306;28;20116;-60
2023/05/22 03:33:03;;;;;;;17.88;13.88;;;11.20;90.00;;;;;;5031215;28;20044;-60
2023/05/22 03:35:29;;;;;;;18.80;14.18;;;11.10;84.40;;;;;;5031135;28;20049;-61
2023/05/22 03:37:55;;;;;;;23.77;15.25;;;11.00;86.60;;;;;;5031332;28;20032;-60
2023/05/22 03:40:21;;;;;;;25.35;14.63;;;11.00;87.00;;;;;;5031669;28;20084;-60
2023/05/22 03:42:48;;;;;;;28.58;16.02;;;11.00;84.90;;;;;;5031046;28;20072;-59
2023/05/22 03:45:13;;;;;;;20.00;15.45;;;11.00;88.70;;;;;;5031444;28;20112;-60
2023/05/22 03:47:39;;;;;;;22.52;14.68;;;10.90;90.00;;;;;;5031497;28;20129;-61
2023/05/22 03:50:05;;;;;;;26.42;13.98;;;11.00;88.80;;;;;;5034638;28;20436;-60
2023/05/22 03:52:31;;;;;;;21.33;14.18;;;10.90;84.60;;;;;;5033659;28;20026;-61
2023/05/22 03:54:57;;;;;;;20.33;14.05;;;10.90;81.70;;;;;;5034823;28;20036;-60
2023/05/22 03:57:22;;;;;;;19.25;14.40;;;10.80;83.90;;;;;;5033542;28;20048;-61
2023/05/22 03:59:48;;;;;;;19.42;14.32;;;10.80;87.20;;;;;;5035110;28;20037;-60
2023/05/22 04:02:15;;;;;;;21.23;14.55;;;10.80;82.50;;;;;;5034828;28;20021;-59
2023/05/22 04:04:41;;;;;;;19.70;15.55;;;10.90;89.20;;;;;;5033061;28;20492;-60
2023/05/22 04:07:07;;;;;;;23.70;17.85;;;11.00;90.90;;;;;;5034704;28;20044;-60
2023/05/22 04:09:34;;;;;;;19.33;16.25;;;11.10;93.80;;;;;;5034902;28;20419;-60
2023/05/22 04:12:01;;;;;;;27.15;17.98;;;11.10;94.20;;;;;;5034491;28;20701;-60
2023/05/22 04:14:27;;;;;;;21.25;16.13;;;11.10;93.20;;;;;;5034520;28;20041;-60
2023/05/22 04:16:53;;;;;;;24.92;17.83;;;11.10;93.60;;;;;;5034199;28;20041;-60
2023/05/22 04:19:19;;;;;;;25.17;16.75;;;11.20;93.20;;;;;;5034153;28;20029;-60
2023/05/22 04:21:45;;;;;;;27.77;18.65;;;11.30;93.50;;;;;;5034121;28;20143;-60
2023/05/22 04:24:11;;;;;;;24.67;16.73;;;11.40;92.50;;;;;;5033781;28;20037;-60
2023/05/22 04:26:37;;;;;;;25.85;17.27;;;11.50;92.30;;;;;;5032865;28;20030;-59
2023/05/22 04:29:03;;;;;;;21.90;16.75;;;11.50;91.80;;;;;;5034336;28;20032;-59
2023/05/22 04:31:29;;;;;;;20.77;16.80;;;11.70;92.20;;;;;;5034849;28;20466;-58
2023/05/22 04:33:55;;;;;;;22.80;17.00;;;11.90;91.40;;;;;;5033927;28;20025;-58
2023/05/22 04:36:24;;;;;;;21.48;17.15;;;11.90;90.50;;;;;;5034065;28;20117;-61
2023/05/22 04:38:50;;;;;;;20.27;16.73;;;11.80;91.30;;;;;;5033941;28;20507;-60
2023/05/22 04:41:21;;;;;;;21.08;16.60;;;11.90;91.20;;;;;;5034396;28;20421;-60
2023/05/22 04:43:47;;;;;;;19.50;17.33;;;12.00;91.30;;;;;;5033629;28;20044;-60
2023/05/22 04:46:14;;;;;;;24.23;18.10;;;12.10;91.20;;;;;;5032176;28;20034;-60
2023/05/22 04:48:40;;;;;;;23.98;17.60;;;12.20;90.20;;;;;;5033304;28;20116;-60
2023/05/22 04:51:05;;;;;;;23.38;16.77;;;12.30;90.90;;;;;;5033579;28;20100;-61
2023/05/22 04:53:32;;;;;;;21.90;17.52;;;12.40;90.40;;;;;;5033922;28;20452;-60
2023/05/22 04:55:58;;;;;;;24.13;19.02;;;12.40;89.80;;;;;;5033522;28;20041;-60
2023/05/22 04:58:26;;;;;;;20.45;17.13;;;12.50;90.80;;;;;;5033679;28;20018;-60
2023/05/22 05:00:52;;;;;;;19.70;16.45;;;12.60;90.00;;;;;;5032870;28;20608;-59
2023/05/22 05:03:19;;;;;;;18.63;15.82;;;12.80;88.90;;;;;;5031533;28;20029;-57
2023/05/22 05:05:46;;;;;;;34.83;16.23;;;12.90;81.30;;;;;;5033402;28;20034;-60
2023/05/22 05:08:12;;;;;;;20.23;16.88;;;13.00;80.70;;;;;;5033076;28;20075;-64
2023/05/22 05:10:38;;;;;;;20.73;17.42;;;13.10;80.50;;;;;;5033479;28;20034;-61
2023/05/22 05:13:03;;;;;;;18.88;16.02;;;13.30;77.40;;;;;;5033904;28;20419;-60
2023/05/22 05:15:29;;;;;;;26.95;18.30;;;13.40;69.10;;;;;;5032986;28;20427;-60
2023/05/22 05:17:55;;;;;;;25.02;17.42;;;13.40;69.90;;;;;;5029761;28;20043;-61
2023/05/22 05:30:24;;;;;;;21.48;17.80;;;14.00;65.60;;;;;;5050388;28;20028;-61
2023/05/22 05:32:49;;;;;;;25.15;15.55;;;14.20;68.60;;;;;;5049825;28;20029;-59
2023/05/22 05:35:15;;;;;;;19.63;15.52;;;14.40;56.10;;;;;;5050415;28;20152;-60
2023/05/22 05:37:40;;;;;;;22.45;16.85;;;14.50;49.60;;;;;;5050966;28;20036;-61
2023/05/22 05:40:07;;;;;;;17.40;14.65;;;14.60;51.40;;;;;;5049049;28;20027;-61
2023/05/22 05:42:32;;;;;;;19.23;13.07;;;14.70;46.50;;;;;;5051392;28;20040;-60
2023/05/22 05:44:58;;;;;;;15.55;12.02;;;14.80;36.70;;;;;;5049410;28;20431;-61
2023/05/22 05:47:25;;;;;;;17.05;12.93;;;15.00;23.40;;;;;;5051383;28;20025;-58
2023/05/22 05:49:50;;;;;;;16.27;13.43;;;15.20;8.70;;;;;;5051094;28;20013;-59
2023/05/22 05:52:16;;;;;;;13.90;11.95;;;15.40;1.00;;;;;;5051282;28;20071;-59
2023/05/22 05:54:46;;;;;;;22.02;12.27;;;15.60;1.00;;;;;;5051256;28;20071;-59
2023/05/22 05:57:12;;;;;;;17.90;11.65;;;15.80;1.00;;;;;;5051703;28;20021;-59
2023/05/22 05:59:38;;;;;;;14.82;10.55;;;16.00;1.00;;;;;;5051192;28;20485;-58
2023/05/22 06:02:03;;;;;;;24.58;12.93;;;16.20;1.00;;;;;;5051361;28;20033;-59
2023/05/22 06:04:29;;;;;;;15.45;11.77;;;16.30;1.00;;;;;;5051503;28;20028;-59
2023/05/22 06:06:56;;;;;;;11.90;10.57;;;16.40;1.00;;;;;;5051109;28;20103;-58
2023/05/22 06:09:21;;;;;;;14.30;11.80;;;16.60;1.00;;;;;;5051003;28;20461;-59
2023/05/22 06:11:47;;;;;;;13.65;10.85;;;16.70;1.00;;;;;;5049987;28;20033;-59
2023/05/22 06:14:13;;;;;;;17.42;11.00;;;16.80;1.00;;;;;;5051275;28;20041;-59
2023/05/22 06:16:38;;;;;;;15.30;11.20;;;16.90;1.00;;;;;;5050918;28;20469;-59
2023/05/22 06:19:04;;;;;;;15.02;11.40;;;17.10;99.90;;;;;;5049570;28;20048;-59
2023/05/22 06:21:29;;;;;;;15.68;10.70;;;17.10;99.90;;;;;;5051379;28;20365;-59
2023/05/22 06:23:56;;;;;;;11.07;9.88;;;17.20;99.90;;;;;;5050494;28;20017;-58
2023/05/22 06:26:22;;;;;;;14.32;10.48;;;17.40;99.90;;;;;;5049479;28;20025;-59
2023/05/22 06:28:48;;;;;;;14.60;10.45;;;17.50;99.90;;;;;;5050721;28;20047;-59
2023/05/22 06:31:13;;;;;;;18.05;11.50;;;17.60;99.90;;;;;;5050682;28;20115;-59
2023/05/22 06:33:39;;;;;;;17.08;10.45;;;17.70;99.90;;;;;;5050439;28;20020;-59
2023/05/22 06:36:07;;;;;;;17.17;10.82;;;17.70;99.90;;;;;;5050835;28;20025;-58
2023/05/22 06:38:33;;;;;;;13.80;10.55;;;17.90;99.90;;;;;;5051229;28;20033;-58
2023/05/22 06:40:59;;;;;;;11.82;9.95;;;18.00;99.90;;;;;;5050492;28;20037;-57
2023/05/22 06:43:24;;;;;;;17.27;10.68;;;18.10;44.60;;;;;;5050537;28;20063;-56
2023/05/22 06:45:50;;;;;;;11.93;9.98;;;18.30;62.60;;;;;;5050202;28;20036;-59
2023/05/22 06:48:16;;;;;;;14.82;9.82;;;18.30;1.00;;;;;;5050623;28;20024;-58
2023/05/22 06:50:41;;;;;;;11.18;9.65;;;18.50;99.90;;;;;;5048922;28;20021;-59
2023/05/22 06:53:07;;;;;;;16.08;9.55;;;18.50;1.00;;;;;;5050286;28;20074;-59
2023/05/22 06:55:33;;;;;;;17.73;10.45;;;18.60;1.00;;;;;;5050927;28;20025;-59
2023/05/22 06:57:58;;;;;;;11.57;9.55;;;18.60;99.90;;;;;;5050273;28;20039;-59
2023/05/22 07:00:24;;;;;;;18.35;9.98;;;18.70;24.80;;;;;;5050177;28;20135;-59
2023/05/22 07:02:50;;;;;;;16.23;10.27;;;18.80;1.00;;;;;;5051026;28;20029;-59
2023/05/22 07:05:16;;;;;;;12.98;9.55;;;18.80;99.90;;;;;;5050369;28;20104;-59
2023/05/22 07:07:42;;;;;;;17.27;9.70;;;19.00;99.90;;;;;;5050017;28;20025;-59
2023/05/22 07:10:08;;;;;;;20.42;11.88;;;19.20;1.00;;;;;;5050522;28;20155;-59
2023/05/22 07:12:34;;;;;;;20.17;9.25;;;19.30;1.00;;;;;;5050403;28;20088;-59
2023/05/22 07:15:00;;;;;;;17.35;10.43;;;19.30;99.90;;;;;;5048772;28;20037;-59
2023/05/22 07:17:26;;;;;;;18.95;10.02;;;19.30;99.90;;;;;;5050375;28;20106;-59
2023/05/22 07:19:52;;;;;;;10.63;9.52;;;19.40;99.90;;;;;;5050317;28;20056;-59
2023/05/22 07:28:32;;;;;;;15.57;9.70;;;19.50;99.90;;;;;;5854804;23;20049;-60
2023/05/22 07:36:55;;;;;;;15.98;10.35;;;19.90;99.90;;;;;;5597579;23;20398;-57
2023/05/22 07:39:21;;;;;;;15.40;9.10;;;20.00;99.90;;;;;;5014738;28;20061;-59
2023/05/22 07:41:50;;;;;;;13.73;10.07;;;20.20;80.00;;;;;;5015323;28;20030;-59
2023/05/22 07:44:16;;;;;;;15.70;9.45;;;20.30;1.00;;;;;;5015295;28;20112;-59
2023/05/22 07:46:42;;;;;;;11.70;9.90;;;20.40;97.00;;;;;;5014881;28;20140;-59
2023/05/22 07:49:09;;;;;;;15.23;9.55;;;20.50;16.20;;;;;;5014926;28;20064;-58
2023/05/22 07:51:34;;;;;;;14.10;9.38;;;20.40;1.00;;;;;;5015208;28;20021;-58
2023/05/22 07:54:00;;;;;;;14.82;10.18;;;20.50;99.90;;;;;;5015161;28;20346;-59
2023/05/22 07:56:26;;;;;;;14.77;9.27;;;20.50;1.00;;;;;;5013664;28;20033;-60
2023/05/22 07:58:52;;;;;;;13.70;9.85;;;20.60;99.90;;;;;;5014520;28;20029;-57
2023/05/22 08:01:18;;;;;;;13.35;9.77;;;20.60;1.00;;;;;;5015182;28;20026;-59
2023/05/22 08:03:43;;;;;;;15.60;9.68;;;20.80;99.90;;;;;;5014986;28;20362;-57
2023/05/22 08:06:09;;;;;;;13.10;9.68;;;21.00;8.80;;;;;;5015197;28;20030;-59
2023/05/22 08:08:35;;;;;;;19.17;9.48;;;21.10;99.90;;;;;;5015319;28;20518;-60
2023/05/22 08:11:01;;;;;;;15.40;9.05;;;21.20;1.00;;;;;;5015083;28;20299;-59
2023/05/22 08:13:26;;;;;;;15.07;10.15;;;21.40;1.00;;;;;;5014728;28;20053;-60
2023/05/22 08:15:52;;;;;;;22.50;13.30;;;21.60;1.00;;;;;;5015117;28;20108;-59
2023/05/22 08:18:18;;;;;;;10.93;8.77;;;21.70;99.90;;;;;;5013003;28;20033;-59
2023/05/22 08:20:45;;;;;;;14.65;9.95;;;21.70;1.00;;;;;;5011632;28;20080;-60
2023/05/22 08:23:11;;;;;;;16.20;12.18;;;21.90;1.00;;;;;;5013730;28;20331;-59
2023/05/22 08:25:36;;;;;;;17.75;8.95;;;22.00;1.00;;;;;;5012395;28;20429;-59
2023/05/22 08:28:02;;;;;;;12.95;8.60;;;22.20;99.90;;;;;;5013343;28;20022;-60
2023/05/22 08:30:28;;;;;;;18.20;7.78;;;22.40;99.90;;;;;;5013524;28;20109;-60
2023/05/22 08:32:53;;;;;;;11.73;9.00;;;22.40;1.00;;;;;;5012886;28;20068;-58
2023/05/22 08:35:19;;;;;;;9.50;7.00;;;22.60;99.90;;;;;;5012510;28;20088;-59
2023/05/22 08:37:45;;;;;;;16.02;6.75;;;22.70;1.00;;;;;;5013985;28;20046;-58
2023/05/22 08:40:14;;;;;;;14.07;8.05;;;22.80;99.90;;;;;;5012853;28;20424;-59
2023/05/22 08:42:40;;;;;;;13.85;7.22;;;22.80;99.90;;;;;;5014332;28;20049;-59
2023/05/22 08:45:06;;;;;;;9.30;6.90;;;23.00;99.90;;;;;;5014106;28;20629;-59
2023/05/22 08:47:37;;;;;;;13.35;7.30;;;23.10;99.90;;;;;;5014267;28;20072;-59
2023/05/22 08:50:03;;;;;;;17.88;7.63;;;23.30;99.90;;;;;;5014294;28;20026;-59
2023/05/22 08:52:50;;;;;;;12.60;8.00;;;23.40;99.90;;;;;;5014361;28;20025;-59
2023/05/22 08:55:18;;;;;;;13.88;7.60;;;23.60;99.90;;;;;;5014142;28;20045;-59
2023/05/22 08:57:45;;;;;;;9.82;7.45;;;23.80;99.90;;;;;;5013911;28;20038;-59
2023/05/22 09:00:11;;;;;;;10.85;7.55;;;24.00;99.90;;;;;;5013852;28;20032;-59
2023/05/22 09:02:37;;;;;;;10.32;7.45;;;24.10;99.90;;;;;;5013776;28;20034;-59
2023/05/22 09:05:05;;;;;;;10.30;6.13;;;23.90;99.90;;;;;;5013579;28;20030;-60
2023/05/22 09:07:31;;;;;;;15.73;7.65;;;23.90;99.90;;;;;;5012912;28;20507;-60
2023/05/22 09:09:57;;;;;;;11.18;7.05;;;24.10;99.90;;;;;;5013608;28;20037;-60
2023/05/22 09:12:25;;;;;;;17.83;7.45;;;24.30;99.90;;;;;;5012264;28;20034;-60
2023/05/22 09:14:51;;;;;;;9.88;7.65;;;24.30;99.90;;;;;;5013501;28;20026;-60
2023/05/22 09:17:19;;;;;;;13.60;6.57;;;24.50;99.90;;;;;;5013669;28;20072;-60
2023/05/22 09:19:46;;;;;;;9.40;7.63;;;24.70;99.90;;;;;;5013513;28;20022;-60
2023/05/22 09:22:13;;;;;;;8.75;6.75;;;24.80;99.90;;;;;;5013529;28;20034;-60
2023/05/22 09:24:43;;;;;;;13.60;7.15;;;24.90;99.90;;;;;;5013894;28;20041;-59
2023/05/22 09:27:10;;;;;;;12.07;6.97;;;25.00;99.90;;;;;;5013553;28;20026;-60
2023/05/22 09:29:52;;;;;;;11.30;6.75;;;25.10;99.90;;;;;;5013631;28;20029;-60
2023/05/22 09:32:18;;;;;;;10.38;6.50;;;25.30;99.90;;;;;;5013408;28;20586;-60
2023/05/22 09:34:45;;;;;;;13.73;6.88;;;25.40;58.40;;;;;;5011944;28;20045;-60
2023/05/22 09:37:15;;;;;;;18.58;6.13;;;25.50;99.90;;;;;;5012831;28;20045;-59
2023/05/22 09:39:45;;;;;;;12.15;6.45;;;25.40;1.00;;;;;;5012820;28;20572;-60
2023/05/22 09:42:13;;;;;;;11.57;6.40;;;25.60;1.00;;;;;;5012647;28;20072;-59
2023/05/22 09:44:41;;;;;;;8.98;5.60;;;25.50;1.00;;;;;;5013027;28;20045;-58
2023/05/22 09:47:08;;;;;;;8.35;6.15;;;25.90;24.50;;;;;;5013484;28;20022;-59
2023/05/22 09:49:42;;;;;;;7.75;5.90;;;26.00;1.00;;;;;;5012368;28;20037;-59
2023/05/22 09:52:08;;;;;;;11.13;5.53;;;26.10;1.00;;;;;;5011858;28;20014;-59
2023/05/22 09:54:38;;;;;;;10.18;5.35;;;26.30;1.00;;;;;;5011609;28;20111;-60
2023/05/22 09:57:08;;;;;;;8.05;5.45;;;26.40;1.00;;;;;;5011552;28;20045;-59
2023/05/22 09:59:38;;;;;;;8.43;5.72;;;26.50;1.00;;;;;;5011462;28;20026;-60
2023/05/22 10:02:05;;;;;;;7.45;5.65;;;26.50;1.00;;;;;;5011557;28;20064;-60
2023/05/22 10:04:32;;;;;;;7.22;5.32;;;26.80;1.00;;;;;;5011750;28;20026;-59
2023/05/22 10:07:02;;;;;;;12.55;5.93;;;27.00;1.00;;;;;;5011184;28;20693;-59
2023/05/22 10:09:33;;;;;;;6.78;5.20;;;27.30;1.00;;;;;;5011215;28;20006;-59
2023/05/22 10:12:03;;;;;;;11.38;5.32;;;27.20;99.90;;;;;;5011147;28;20516;-60
2023/05/22 10:14:29;;;;;;;7.00;5.63;;;27.20;99.90;;;;;;5011616;28;20065;-59
2023/05/22 10:16:56;;;;;;;6.53;5.05;;;27.30;99.90;;;;;;5011021;28;20065;-59
2023/05/22 10:19:25;;;;;;;13.20;5.63;;;27.30;99.90;;;;;;5011053;28;20038;-59
2023/05/22 10:21:55;;;;;;;10.02;4.75;;;27.20;99.90;;;;;;5011008;28;20113;-59
2023/05/22 10:24:22;;;;;;;12.00;5.32;;;27.50;99.90;;;;;;5010970;28;20045;-59
2023/05/22 10:26:48;;;;;;;10.40;5.15;;;27.70;99.90;;;;;;5010873;28;20104;-59
2023/05/22 10:29:19;;;;;;;14.30;5.45;;;27.60;99.90;;;;;;5010893;28;20029;-60
2023/05/22 10:32:20;;;;;;;10.90;5.85;;;28.00;99.90;;;;;;5010905;28;20029;-59
2023/05/22 10:34:50;;;;;;;16.42;5.78;;;27.80;99.90;;;;;;5011201;28;20080;-59
2023/05/22 10:37:22;;;;;;;8.30;5.10;;;27.70;99.90;;;;;;5009157;28;20548;-59
2023/05/22 10:39:47;;;;;;;6.75;5.38;;;28.20;99.90;;;;;;5010757;28;20030;-60
2023/05/22 10:42:14;;;;;;;16.35;5.40;;;28.10;99.90;;;;;;5010688;28;20037;-59
2023/05/22 10:44:40;;;;;;;11.07;4.70;;;28.10;99.90;;;;;;5010762;28;20034;-59
2023/05/22 10:47:10;;;;;;;7.15;4.60;;;28.10;99.90;;;;;;5010791;28;20037;-60
2023/05/22 10:49:36;;;;;;;6.28;4.38;;;28.30;99.90;;;;;;5011328;28;20532;-59
2023/05/22 10:52:02;;;;;;;11.45;4.68;;;28.40;99.90;;;;;;5010491;28;20049;-59
2023/05/22 10:54:42;;;;;;;6.90;4.80;;;28.40;99.90;;;;;;5010597;28;20088;-60
2023/05/22 10:57:16;;;;;;;11.63;4.90;;;28.60;99.90;;;;;;5010477;28;20033;-59
2023/05/22 10:59:42;;;;;;;8.55;4.72;;;28.70;99.90;;;;;;5010584;28;20077;-59
2023/05/22 11:02:27;;;;;;;9.63;4.88;;;29.00;99.90;;;;;;5010667;28;20037;-59
2023/05/22 11:04:53;;;;;;;8.77;4.80;;;28.90;99.90;;;;;;5010439;28;20026;-58
2023/05/22 11:07:19;;;;;;;7.60;4.20;;;28.90;99.90;;;;;;5010429;28;20033;-59
2023/05/22 11:09:46;;;;;;;11.00;3.75;;;28.80;99.90;;;;;;5010519;28;20030;-59
2023/05/22 11:12:16;;;;;;;9.52;4.80;;;28.60;99.90;;;;;;5010418;28;20022;-59
2023/05/22 11:14:59;;;;;;;12.93;4.88;;;28.70;99.90;;;;;;5009254;28;20061;-59
2023/05/22 11:17:31;;;;;;;12.23;4.25;;;29.00;99.90;;;;;;5010497;28;20022;-59
2023/05/22 11:20:05;;;;;;;11.48;5.18;;;29.00;99.90;;;;;;5010178;28;20554;-60
2023/05/22 11:22:36;;;;;;;6.60;4.70;;;28.90;99.90;;;;;;5010405;28;20026;-60
2023/05/22 11:25:15;;;;;;;7.55;4.50;;;28.90;99.90;;;;;;5010287;28;20025;-60
2023/05/22 11:27:41;;;;;;;9.27;4.57;;;29.10;99.90;;;;;;5010529;28;20077;-60
2023/05/22 11:30:08;;;;;;;7.38;4.63;;;29.20;99.90;;;;;;5009846;28;20425;-59
2023/05/22 11:32:35;;;;;;;7.32;4.28;;;29.40;99.90;;;;;;5010603;28;20018;-60
2023/05/22 11:35:02;;;;;;;6.90;4.53;;;29.40;99.90;;;;;;5009041;28;20036;-60
2023/05/22 11:37:30;;;;;;;5.97;4.97;;;29.40;99.90;;;;;;5010017;28;20420;-60
2023/05/22 11:39:57;;;;;;;7.72;4.30;;;29.40;99.90;;;;;;5010175;28;20473;-60
2023/05/22 11:42:23;;;;;;;4.60;4.20;;;29.40;99.90;;;;;;5008748;28;20026;-59
2023/05/22 11:44:49;;;;;;;8.23;4.28;;;29.50;99.90;;;;;;5010599;28;20400;-60
2023/05/22 11:47:15;;;;;;;7.85;4.85;;;29.70;99.90;;;;;;5011086;28;20121;-60
2023/05/22 11:49:41;;;;;;;10.75;4.20;;;30.00;99.90;;;;;;5010753;28;20109;-60
2023/05/22 11:52:09;;;;;;;7.95;4.30;;;30.30;99.90;;;;;;5010780;28;20018;-60
2023/05/22 11:54:35;;;;;;;11.63;5.00;;;30.30;99.90;;;;;;5010214;28;20018;-60
2023/05/22 11:57:04;;;;;;;12.00;5.32;;;30.30;99.90;;;;;;5010074;28;20026;-60
2023/05/22 11:59:30;;;;;;;9.18;5.15;;;29.90;99.90;;;;;;5010651;28;20026;-59
2023/05/22 12:01:55;;;;;;;12.40;5.10;;;29.50;99.90;;;;;;5010213;28;20026;-60
2023/05/22 12:04:22;;;;;;;9.38;5.00;;;29.30;99.90;;;;;;5010151;28;20079;-60
2023/05/22 12:06:48;;;;;;;9.38;4.25;;;29.80;99.90;;;;;;5010031;28;20026;-60
2023/05/22 12:09:13;;;;;;;6.93;4.43;;;30.70;99.90;;;;;;5010378;28;20030;-60
2023/05/22 12:11:43;;;;;;;6.13;4.65;;;31.10;99.90;;;;;;5013606;28;20113;-60
2023/05/22 12:14:11;;;;;;;14.68;4.03;;;31.80;99.90;;;;;;5012279;28;20088;-60
2023/05/22 12:16:36;;;;;;;9.63;5.38;;;32.60;99.90;;;;;;5013884;28;20539;-60
2023/05/22 12:19:09;;;;;;;4.68;4.10;;;33.40;99.90;;;;;;5013325;28;20030;-60
2023/05/22 12:21:37;;;;;;;7.75;3.97;;;33.80;99.90;;;;;;5013629;28;20052;-60
2023/05/22 12:24:04;;;;;;;9.05;4.28;;;34.50;99.90;;;;;;5013509;28;20080;-60
2023/05/22 12:26:33;;;;;;;12.00;4.50;;;34.70;99.90;;;;;;5013308;28;20022;-60
2023/05/22 12:28:59;;;;;;;12.00;4.25;;;34.90;99.90;;;;;;5013130;28;20396;-60
2023/05/22 12:31:25;;;;;;;5.13;4.03;;;34.90;99.90;;;;;;5013759;28;20022;-60
2023/05/22 12:33:55;;;;;;;6.10;4.43;;;35.00;99.90;;;;;;5013230;28;20106;-60
2023/05/22 12:36:32;;;;;;;8.07;4.45;;;35.30;99.90;;;;;;5013089;28;20237;-60
2023/05/22 12:38:58;;;;;;;8.05;4.40;;;35.10;99.90;;;;;;5012889;28;20018;-60
2023/05/22 12:41:23;;;;;;;6.15;4.05;;;34.70;99.90;;;;;;5013143;28;20033;-60
2023/05/22 12:43:49;;;;;;;4.72;3.78;;;34.80;99.90;;;;;;5013051;28;20481;-60
2023/05/22 12:46:15;;;;;;;10.82;4.10;;;35.00;99.90;;;;;;5012902;28;20109;-60
2023/05/22 12:48:43;;;;;;;10.10;4.28;;;35.10;99.90;;;;;;5013322;28;20025;-60
2023/05/22 12:51:09;;;;;;;11.65;4.70;;;35.20;99.90;;;;;;5014231;28;20044;-60
2023/05/22 12:53:34;;;;;;;6.72;4.30;;;36.00;99.90;;;;;;5012893;28;20026;-60
2023/05/22 12:56:00;;;;;;;8.50;4.28;;;35.90;99.90;;;;;;5012428;28;20026;-60
2023/05/22 12:58:25;;;;;;;5.50;4.03;;;36.10;99.90;;;;;;5012778;28;20026;-60
2023/05/22 13:00:51;;;;;;;12.02;4.38;;;36.00;99.90;;;;;;5012586;28;20022;-60